Weather History for KHNB - January, 2013

Change the Weather History Date:

Sunday, January 20, 2013

  Actual Average Record
Temperature  
Mean Temperature 35 °F -  
Max Temperature 44 °F 36 °F 60 °F (1999)
Min Temperature 26 °F 22 °F 5 °F (2008)
Degree Days  
Heating Degree Days 30    
Moisture  
Dew Point 19 °F    
Average Humidity 55    
Maximum Humidity 81    
Minimum Humidity 38    
Precipitation  
Precipitation 0.00 in - - ()
Sea Level Pressure  
Sea Level Pressure 30.22 in    
Wind  
Wind Speed 10 mph (NW)    
Max Wind Speed 16 mph    
Max Gust Speed 22 mph    
Visibility 10 miles    
Events      
Averages and records for this station are not official NWS values.
T = Trace of Precipitation, MM = Missing Value Source: NWS Daily Summary

Daily Weather History Graph

Daily Weather History Graph

Search for Another Location

Airport or City:

Trip Planner

Search our weather history database for the weather conditions in past years. The results will help you decide how hot, cold, wet, or windy it might be!

Date:

Astronomy

Jan. 20, 2013 Rise Set
Actual Time 8:00 AM EST 5:57 PM EST
Civil Twilight 7:32 AM EST 6:25 PM EST
Nautical Twilight 7:00 AM EST 6:58 PM EST
Astronomical Twilight 6:28 AM EST 7:29 PM EST
Moon 12:57 PM EST (1/20) 2:33 AM EST (1/20)
Length of Visible Light 10h 53m
Length of Day
9h 56m
Waxing Gibbous, 66% of the Moon is Illuminated
Jan 20
Waxing Gibbous
Jan 26
Full
Feb 3
Last Quarter
Feb 10
New
Feb 17
First Quarter

Hourly Weather History & Observations

Time (EST) Temp. Windchill Dew Point Humidity Pressure Visibility Wind Dir Wind Speed Gust Speed Precip Events Conditions
12:15 AM 44.6 °F 38.4 °F 33.8 °F 66% 30.06 in 10.0 mi SW 12.7 mph - N/A   Clear
12:35 AM 44.6 °F 38.1 °F 33.8 °F 66% 30.06 in 10.0 mi SW 13.8 mph - N/A   Clear
12:55 AM 44.6 °F 38.8 °F 33.8 °F 66% 30.06 in 10.0 mi SW 11.5 mph - N/A   Clear
1:15 AM 44.6 °F 40.2 °F 33.8 °F 66% 30.07 in 10.0 mi SW 8.1 mph - N/A   Clear
1:35 AM 42.8 °F 36.6 °F 33.8 °F 70% 30.07 in 10.0 mi WSW 11.5 mph - N/A   Clear
1:55 AM 42.8 °F 37.5 °F 33.8 °F 70% 30.08 in 10.0 mi WSW 9.2 mph - N/A   Clear
2:35 AM 42.8 °F 37.5 °F 33.8 °F 70% 30.10 in 10.0 mi WSW 9.2 mph - N/A   Clear
2:55 AM 41.0 °F 34.3 °F 33.8 °F 76% 30.11 in 10.0 mi West 11.5 mph - N/A   Clear
3:15 AM 39.2 °F 34.2 °F 33.8 °F 81% 30.12 in 10.0 mi West 6.9 mph - N/A   Clear
3:35 AM 39.2 °F 32.0 °F 33.8 °F 81% 30.13 in 10.0 mi WNW 11.5 mph - N/A   Clear
3:55 AM 39.2 °F 34.2 °F 32.0 °F 75% 30.13 in 10.0 mi WNW 6.9 mph - N/A   Clear
4:15 AM 39.2 °F 33.0 °F 30.2 °F 70% 30.14 in 10.0 mi NW 9.2 mph - N/A   Clear
4:35 AM 39.2 °F 33.0 °F 28.4 °F 65% 30.15 in 10.0 mi NW 9.2 mph - N/A   Clear
4:55 AM 39.2 °F 32.5 °F 28.4 °F 65% 30.15 in 10.0 mi NW 10.4 mph - N/A   Clear
5:15 AM 39.2 °F 32.5 °F 28.4 °F 65% 30.15 in 10.0 mi NW 10.4 mph - N/A   Clear
5:35 AM 37.4 °F 29.3 °F 26.6 °F 65% 30.16 in 10.0 mi NW 12.7 mph - N/A   Clear
5:55 AM 37.4 °F 30.3 °F 26.6 °F 65% 30.17 in 10.0 mi NNW 10.4 mph 18.4 mph N/A   Clear
6:15 AM 35.6 °F 28.6 °F 26.6 °F 70% 30.18 in 10.0 mi NW 9.2 mph - N/A   Clear
6:35 AM 35.6 °F 28.6 °F 24.8 °F 65% 30.19 in 10.0 mi NW 9.2 mph - N/A   Clear
6:55 AM 35.6 °F 27.1 °F 24.8 °F 65% 30.20 in 10.0 mi NW 12.7 mph 20.7 mph N/A   Clear
7:15 AM 33.8 °F 24.3 °F 24.8 °F 70% 30.21 in 10.0 mi NNW 13.8 mph 20.7 mph N/A   Clear
7:35 AM 33.8 °F 23.5 °F 21.2 °F 60% 30.22 in 10.0 mi NNW 16.1 mph 21.9 mph N/A   Clear
7:55 AM 32.0 °F 22.1 °F 15.8 °F 51% 30.23 in 10.0 mi NW 13.8 mph 21.9 mph N/A   Clear
8:15 AM 30.2 °F 20.8 °F 14.0 °F 51% 30.24 in 10.0 mi NW 11.5 mph 18.4 mph N/A   Clear
8:35 AM 30.2 °F 21.3 °F 14.0 °F 51% 30.24 in 10.0 mi NW 10.4 mph - N/A   Clear
8:55 AM 30.2 °F 21.9 °F 15.8 °F 55% 30.26 in 10.0 mi NW 9.2 mph 16.1 mph N/A   Clear
9:15 AM 30.2 °F 20.2 °F 12.2 °F 47% 30.27 in 10.0 mi NW 12.7 mph - N/A   Clear
9:55 AM 30.2 °F 18.9 °F 12.2 °F 47% 30.28 in 10.0 mi NNW 16.1 mph 20.7 mph N/A   Clear
10:15 AM 30.2 °F 20.8 °F 12.2 °F 47% 30.30 in 10.0 mi NNW 11.5 mph - N/A   Clear
10:35 AM 32.0 °F 22.1 °F 12.2 °F 44% 30.31 in 10.0 mi NNW 13.8 mph - N/A   Clear
10:55 AM 32.0 °F 23.6 °F 12.2 °F 44% 30.31 in 10.0 mi NW 10.4 mph - N/A   Clear
11:15 AM 33.8 °F 26.4 °F 12.2 °F 41% 30.31 in 10.0 mi North 9.2 mph - N/A   Clear
11:35 AM 33.8 °F 26.4 °F 12.2 °F 41% 30.31 in 10.0 mi NW 9.2 mph 18.4 mph N/A   Clear
11:55 AM 33.8 °F 29.6 °F 14.0 °F 44% 30.30 in 10.0 mi North 4.6 mph - N/A   Clear
12:15 PM 33.8 °F 27.0 °F 15.8 °F 48% 30.30 in 10.0 mi North 8.1 mph - N/A   Clear
12:35 PM 35.6 °F 27.5 °F 15.8 °F 44% 30.29 in 10.0 mi NW 11.5 mph - N/A   Clear
1:15 PM 35.6 °F 28.6 °F 14.0 °F 41% 30.26 in 10.0 mi NW 9.2 mph - N/A   Clear
1:35 PM 35.6 °F 28.6 °F 14.0 °F 41% 30.27 in 10.0 mi NW 9.2 mph - N/A   Clear
1:55 PM 35.6 °F 29.2 °F 15.8 °F 44% 30.25 in 10.0 mi WNW 8.1 mph - N/A   Clear
2:15 PM 35.6 °F 30.7 °F 14.0 °F 41% 30.25 in 10.0 mi NNW 5.8 mph - N/A   Clear
2:35 PM 35.6 °F 32.8 °F 15.8 °F 44% 30.24 in 10.0 mi NW 3.5 mph - N/A   Clear
2:55 PM 37.4 °F 34.9 °F 17.6 °F 45% 30.24 in 10.0 mi WNW 3.5 mph - N/A   Clear
3:15 PM 35.6 °F - 15.8 °F 44% 30.23 in 10.0 mi Calm Calm - N/A   Clear
3:35 PM 37.4 °F 32.1 °F 17.6 °F 45% 30.24 in 10.0 mi NNW 6.9 mph - N/A   Clear
3:55 PM 37.4 °F 32.8 °F 17.6 °F 45% 30.24 in 10.0 mi NW 5.8 mph - N/A   Clear
4:15 PM 37.4 °F 30.8 °F 17.6 °F 45% 30.25 in 10.0 mi NNW 9.2 mph - N/A   Clear
4:35 PM 35.6 °F 28.6 °F 14.0 °F 41% 30.25 in 10.0 mi NNW 9.2 mph - N/A   Clear
4:55 PM 35.6 °F 28.0 °F 12.2 °F 38% 30.26 in 10.0 mi NNW 10.4 mph - N/A   Clear
5:15 PM 35.6 °F 29.9 °F 12.2 °F 38% 30.26 in 10.0 mi North 6.9 mph - N/A   Clear
5:35 PM 33.8 °F 26.4 °F 12.2 °F 41% 30.26 in 10.0 mi NNW 9.2 mph - N/A   Clear
5:55 PM 33.8 °F 26.4 °F 14.0 °F 44% 30.26 in 10.0 mi NNW 9.2 mph 16.1 mph N/A   Partly Cloudy
6:15 PM 32.0 °F 24.8 °F 14.0 °F 48% 30.27 in 10.0 mi NNW 8.1 mph - N/A   Clear
6:35 PM 32.0 °F 25.6 °F 12.2 °F 44% 30.27 in 10.0 mi NNW 6.9 mph - N/A   Clear
6:55 PM 30.2 °F 24.3 °F 14.0 °F 51% 30.26 in 10.0 mi North 5.8 mph - N/A   Clear
7:15 PM 30.2 °F 24.3 °F 14.0 °F 51% 30.26 in 10.0 mi North 5.8 mph - N/A   Clear
7:35 PM 30.2 °F 26.7 °F 12.2 °F 47% 30.25 in 10.0 mi North 3.5 mph - N/A   Clear
7:55 PM 28.4 °F 23.3 °F 12.2 °F 51% 30.26 in 10.0 mi NNW 4.6 mph - N/A   Clear
8:15 PM 28.4 °F 22.2 °F 12.2 °F 51% 30.26 in 10.0 mi NNW 5.8 mph - N/A   Clear
8:35 PM 28.4 °F 22.2 °F 12.2 °F 51% 30.26 in 10.0 mi NNW 5.8 mph - N/A   Clear
8:55 PM 28.4 °F 22.2 °F 12.2 °F 51% 30.26 in 10.0 mi NNW 5.8 mph - N/A   Clear
9:15 PM 28.4 °F 23.3 °F 14.0 °F 55% 30.26 in 10.0 mi NNW 4.6 mph - N/A   Clear
9:35 PM 28.4 °F 23.3 °F 14.0 °F 55% 30.25 in 10.0 mi NNW 4.6 mph - N/A   Clear
9:55 PM 26.6 °F 22.6 °F 14.0 °F 59% 30.25 in 10.0 mi NNW 3.5 mph - N/A   Clear
10:15 PM 26.6 °F 21.2 °F 14.0 °F 59% 30.24 in 10.0 mi NW 4.6 mph - N/A   Clear
10:35 PM 26.6 °F 20.0 °F 15.8 °F 64% 30.24 in 10.0 mi NNW 5.8 mph - N/A   Clear
10:55 PM 26.6 °F 19.1 °F 15.8 °F 64% 30.24 in 10.0 mi NNW 6.9 mph - N/A   Clear
11:15 PM 26.6 °F 18.2 °F 15.8 °F 64% 30.24 in 10.0 mi NNW 8.1 mph - N/A   Partly Cloudy
11:35 PM 26.6 °F 19.1 °F 15.8 °F 64% 30.24 in 10.0 mi NNW 6.9 mph - N/A   Mostly Cloudy